sensor_id;sensor_type;location;lat;lon;timestamp;pressure;altitude;pressure_sealevel;temperature;humidity
46682;BME280;34101;53.430;-2.224;2023-06-04T00:00:10;102180.97;;;14.88;43.58
46682;BME280;34101;53.430;-2.224;2023-06-04T00:02:38;102182.68;;;14.85;43.64
46682;BME280;34101;53.430;-2.224;2023-06-04T00:05:06;102185.09;;;14.81;43.91
46682;BME280;34101;53.430;-2.224;2023-06-04T00:07:39;102184.71;;;14.77;44.31
46682;BME280;34101;53.430;-2.224;2023-06-04T00:10:07;102183.35;;;14.73;44.58
46682;BME280;34101;53.430;-2.224;2023-06-04T00:12:35;102181.94;;;14.68;44.53
46682;BME280;34101;53.430;-2.224;2023-06-04T00:15:02;102187.72;;;14.66;44.48
46682;BME280;34101;53.430;-2.224;2023-06-04T00:17:30;102184.11;;;14.62;44.77
46682;BME280;34101;53.430;-2.224;2023-06-04T00:19:57;102185.63;;;14.64;45.04
46682;BME280;34101;53.430;-2.224;2023-06-04T00:22:25;102182.31;;;14.53;45.15
46682;BME280;34101;53.430;-2.224;2023-06-04T00:24:52;102181.75;;;14.50;45.21
46682;BME280;34101;53.430;-2.224;2023-06-04T00:27:20;102178.88;;;14.48;45.14
46682;BME280;34101;53.430;-2.224;2023-06-04T00:29:47;102176.12;;;14.46;45.14
46682;BME280;34101;53.430;-2.224;2023-06-04T00:32:15;102177.03;;;14.41;45.35
46682;BME280;34101;53.430;-2.224;2023-06-04T00:34:42;102174.17;;;14.34;45.92
46682;BME280;34101;53.430;-2.224;2023-06-04T00:37:09;102171.97;;;14.24;46.40
46682;BME280;34101;53.430;-2.224;2023-06-04T00:39:42;102170.40;;;14.23;46.44
46682;BME280;34101;53.430;-2.224;2023-06-04T00:42:10;102171.18;;;14.22;46.49
46682;BME280;34101;53.430;-2.224;2023-06-04T00:44:37;102175.77;;;14.20;46.55
46682;BME280;34101;53.430;-2.224;2023-06-04T00:47:05;102174.47;;;14.20;46.56
46682;BME280;34101;53.430;-2.224;2023-06-04T00:49:32;102175.13;;;14.18;46.68
46682;BME280;34101;53.430;-2.224;2023-06-04T00:52:00;102170.84;;;14.14;46.78
46682;BME280;34101;53.430;-2.224;2023-06-04T00:54:27;102172.44;;;14.11;46.92
46682;BME280;34101;53.430;-2.224;2023-06-04T00:56:54;102176.41;;;14.08;46.95
46682;BME280;34101;53.430;-2.224;2023-06-04T00:59:22;102174.99;;;14.05;47.14
46682;BME280;34101;53.430;-2.224;2023-06-04T01:01:56;102174.97;;;14.01;47.67
46682;BME280;34101;53.430;-2.224;2023-06-04T01:04:29;102173.38;;;13.95;47.95
46682;BME280;34101;53.430;-2.224;2023-06-04T01:07:00;102173.80;;;13.91;48.04
46682;BME280;34101;53.430;-2.224;2023-06-04T01:09:30;102174.08;;;13.87;48.18
46682;BME280;34101;53.430;-2.224;2023-06-04T01:11:58;102172.71;;;13.86;48.30
46682;BME280;34101;53.430;-2.224;2023-06-04T01:14:25;102172.03;;;13.83;48.45
46682;BME280;34101;53.430;-2.224;2023-06-04T01:16:58;102172.73;;;13.85;48.62
46682;BME280;34101;53.430;-2.224;2023-06-04T01:19:42;102172.06;;;13.77;49.09
46682;BME280;34101;53.430;-2.224;2023-06-04T01:22:21;102170.71;;;13.68;49.06
46682;BME280;34101;53.430;-2.224;2023-06-04T01:24:56;102169.94;;;13.66;49.15
46682;BME280;34101;53.430;-2.224;2023-06-04T01:27:26;102173.47;;;13.61;49.29
46682;BME280;34101;53.430;-2.224;2023-06-04T01:29:53;102171.65;;;13.55;49.57
46682;BME280;34101;53.430;-2.224;2023-06-04T01:32:21;102168.65;;;13.48;49.81
46682;BME280;34101;53.430;-2.224;2023-06-04T01:34:48;102169.00;;;13.50;49.76
46682;BME280;34101;53.430;-2.224;2023-06-04T01:37:16;102167.20;;;13.47;49.89
46682;BME280;34101;53.430;-2.224;2023-06-04T01:39:43;102167.64;;;13.41;50.23
46682;BME280;34101;53.430;-2.224;2023-06-04T01:42:11;102170.78;;;13.41;50.33
46682;BME280;34101;53.430;-2.224;2023-06-04T01:44:38;102169.95;;;13.39;50.43
46682;BME280;34101;53.430;-2.224;2023-06-04T01:47:06;102173.06;;;13.36;50.66
46682;BME280;34101;53.430;-2.224;2023-06-04T01:49:33;102174.23;;;13.31;51.05
46682;BME280;34101;53.430;-2.224;2023-06-04T01:52:01;102177.17;;;13.21;51.36
46682;BME280;34101;53.430;-2.224;2023-06-04T01:54:28;102176.17;;;13.22;51.38
46682;BME280;34101;53.430;-2.224;2023-06-04T01:56:56;102180.16;;;13.13;51.71
46682;BME280;34101;53.430;-2.224;2023-06-04T01:59:23;102180.68;;;13.13;51.61
46682;BME280;34101;53.430;-2.224;2023-06-04T02:02:52;102181.69;;;13.09;51.84
46682;BME280;34101;53.430;-2.224;2023-06-04T02:05:25;102180.80;;;13.11;51.86
46682;BME280;34101;53.430;-2.224;2023-06-04T02:07:56;102181.20;;;13.12;51.94
46682;BME280;34101;53.430;-2.224;2023-06-04T02:10:25;102180.47;;;13.09;52.22
46682;BME280;34101;53.430;-2.224;2023-06-04T02:12:55;102181.67;;;13.03;52.45
46682;BME280;34101;53.430;-2.224;2023-06-04T02:15:24;102181.28;;;12.98;52.69
46682;BME280;34101;53.430;-2.224;2023-06-04T02:17:55;102181.82;;;12.89;53.13
46682;BME280;34101;53.430;-2.224;2023-06-04T02:20:22;102182.41;;;12.88;53.10
46682;BME280;34101;53.430;-2.224;2023-06-04T02:22:49;102186.12;;;12.81;53.46
46682;BME280;34101;53.430;-2.224;2023-06-04T02:25:16;102193.97;;;12.76;53.76
46682;BME280;34101;53.430;-2.224;2023-06-04T02:27:44;102196.65;;;12.75;53.84
46682;BME280;34101;53.430;-2.224;2023-06-04T02:30:12;102193.53;;;12.74;54.01
46682;BME280;34101;53.430;-2.224;2023-06-04T02:32:39;102194.63;;;12.74;54.07
46682;BME280;34101;53.430;-2.224;2023-06-04T02:35:07;102190.96;;;12.72;54.06
46682;BME280;34101;53.430;-2.224;2023-06-04T02:37:34;102193.75;;;12.77;54.16
46682;BME280;34101;53.430;-2.224;2023-06-04T02:40:02;102196.60;;;12.71;54.42
46682;BME280;34101;53.430;-2.224;2023-06-04T02:42:29;102202.53;;;12.66;54.64
46682;BME280;34101;53.430;-2.224;2023-06-04T02:44:56;102201.58;;;12.65;54.82
46682;BME280;34101;53.430;-2.224;2023-06-04T02:47:24;102202.16;;;12.63;54.93
46682;BME280;34101;53.430;-2.224;2023-06-04T02:49:52;102203.25;;;12.57;55.19
46682;BME280;34101;53.430;-2.224;2023-06-04T02:52:25;102203.97;;;12.52;55.43
46682;BME280;34101;53.430;-2.224;2023-06-04T02:54:51;102204.35;;;12.44;55.72
46682;BME280;34101;53.430;-2.224;2023-06-04T02:57:24;102205.92;;;12.40;55.81
46682;BME280;34101;53.430;-2.224;2023-06-04T02:59:55;102206.35;;;12.43;55.80
46682;BME280;34101;53.430;-2.224;2023-06-04T03:02:23;102203.22;;;12.39;55.84
46682;BME280;34101;53.430;-2.224;2023-06-04T03:04:51;102200.60;;;12.38;55.99
46682;BME280;34101;53.430;-2.224;2023-06-04T03:07:18;102198.77;;;12.32;56.14
46682;BME280;34101;53.430;-2.224;2023-06-04T03:09:45;102197.55;;;12.32;56.20
46682;BME280;34101;53.430;-2.224;2023-06-04T03:12:13;102195.04;;;12.32;56.32
46682;BME280;34101;53.430;-2.224;2023-06-04T03:14:40;102190.95;;;12.27;56.42
46682;BME280;34101;53.430;-2.224;2023-06-04T03:17:08;102191.88;;;12.25;56.73
46682;BME280;34101;53.430;-2.224;2023-06-04T03:19:35;102193.19;;;12.23;57.08
46682;BME280;34101;53.430;-2.224;2023-06-04T03:22:04;102194.04;;;12.23;57.40
46682;BME280;34101;53.430;-2.224;2023-06-04T03:24:33;102193.16;;;12.23;57.45
46682;BME280;34101;53.430;-2.224;2023-06-04T03:27:02;102187.68;;;12.21;57.75
46682;BME280;34101;53.430;-2.224;2023-06-04T03:29:29;102187.58;;;12.17;58.00
46682;BME280;34101;53.430;-2.224;2023-06-04T03:31:57;102187.90;;;12.21;58.02
46682;BME280;34101;53.430;-2.224;2023-06-04T03:34:24;102190.91;;;12.21;58.08
46682;BME280;34101;53.430;-2.224;2023-06-04T03:36:52;102192.33;;;12.18;58.29
46682;BME280;34101;53.430;-2.224;2023-06-04T03:39:20;102193.71;;;12.19;58.41
46682;BME280;34101;53.430;-2.224;2023-06-04T03:41:47;102193.94;;;12.17;58.63
46682;BME280;34101;53.430;-2.224;2023-06-04T03:44:21;102193.56;;;12.20;58.67
46682;BME280;34101;53.430;-2.224;2023-06-04T03:46:49;102192.55;;;12.18;58.86
46682;BME280;34101;53.430;-2.224;2023-06-04T03:49:17;102189.13;;;12.18;58.86
46682;BME280;34101;53.430;-2.224;2023-06-04T03:51:49;102188.95;;;12.19;58.89
46682;BME280;34101;53.430;-2.224;2023-06-04T03:54:16;102190.49;;;12.17;58.90
46682;BME280;34101;53.430;-2.224;2023-06-04T03:56:44;102185.92;;;12.19;58.87
46682;BME280;34101;53.430;-2.224;2023-06-04T03:59:13;102186.59;;;12.16;58.96
46682;BME280;34101;53.430;-2.224;2023-06-04T04:01:41;102186.28;;;12.14;59.12
46682;BME280;34101;53.430;-2.224;2023-06-04T04:04:08;102184.26;;;12.16;59.08
46682;BME280;34101;53.430;-2.224;2023-06-04T04:06:36;102183.34;;;12.13;59.14
46682;BME280;34101;53.430;-2.224;2023-06-04T04:09:03;102185.34;;;12.14;59.14
46682;BME280;34101;53.430;-2.224;2023-06-04T04:11:31;102185.70;;;12.19;59.03
46682;BME280;34101;53.430;-2.224;2023-06-04T04:13:58;102186.09;;;12.19;58.89
46682;BME280;34101;53.430;-2.224;2023-06-04T04:16:25;102187.49;;;12.19;58.86
46682;BME280;34101;53.430;-2.224;2023-06-04T04:18:53;102192.79;;;12.24;58.70
46682;BME280;34101;53.430;-2.224;2023-06-04T04:21:20;102193.03;;;12.22;58.73
46682;BME280;34101;53.430;-2.224;2023-06-04T04:23:49;102194.02;;;12.22;58.61
46682;BME280;34101;53.430;-2.224;2023-06-04T04:26:17;102193.17;;;12.20;58.79
46682;BME280;34101;53.430;-2.224;2023-06-04T04:28:44;102194.07;;;12.21;58.85
46682;BME280;34101;53.430;-2.224;2023-06-04T04:31:12;102194.07;;;12.22;58.89
46682;BME280;34101;53.430;-2.224;2023-06-04T04:33:39;102193.94;;;12.24;58.89
46682;BME280;34101;53.430;-2.224;2023-06-04T04:36:07;102192.45;;;12.24;59.05
46682;BME280;34101;53.430;-2.224;2023-06-04T04:38:36;102192.80;;;12.29;58.94
46682;BME280;34101;53.430;-2.224;2023-06-04T04:41:03;102194.24;;;12.32;58.98
46682;BME280;34101;53.430;-2.224;2023-06-04T04:43:31;102195.02;;;12.33;59.06
46682;BME280;34101;53.430;-2.224;2023-06-04T04:45:58;102193.02;;;12.36;58.93
46682;BME280;34101;53.430;-2.224;2023-06-04T04:48:25;102190.07;;;12.41;58.79
46682;BME280;34101;53.430;-2.224;2023-06-04T04:50:54;102188.89;;;12.48;58.77
46682;BME280;34101;53.430;-2.224;2023-06-04T04:53:22;102186.98;;;12.48;58.91
46682;BME280;34101;53.430;-2.224;2023-06-04T04:55:53;102185.44;;;12.49;59.27
46682;BME280;34101;53.430;-2.224;2023-06-04T04:58:20;102184.97;;;12.51;59.53
46682;BME280;34101;53.430;-2.224;2023-06-04T05:00:48;102188.29;;;12.56;59.67
46682;BME280;34101;53.430;-2.224;2023-06-04T05:03:16;102190.62;;;12.58;59.60
46682;BME280;34101;53.430;-2.224;2023-06-04T05:05:43;102186.46;;;12.64;59.89
46682;BME280;34101;53.430;-2.224;2023-06-04T05:08:10;102190.07;;;12.68;59.92
46682;BME280;34101;53.430;-2.224;2023-06-04T05:10:37;102190.20;;;12.69;60.05
46682;BME280;34101;53.430;-2.224;2023-06-04T05:13:05;102189.09;;;12.71;60.16
46682;BME280;34101;53.430;-2.224;2023-06-04T05:15:32;102189.50;;;12.68;60.33
46682;BME280;34101;53.430;-2.224;2023-06-04T05:18:00;102191.56;;;12.72;60.06
46682;BME280;34101;53.430;-2.224;2023-06-04T05:20:27;102191.30;;;12.70;60.28
46682;BME280;34101;53.430;-2.224;2023-06-04T05:22:55;102190.87;;;12.69;60.20
46682;BME280;34101;53.430;-2.224;2023-06-04T05:25:22;102191.84;;;12.73;60.20
46682;BME280;34101;53.430;-2.224;2023-06-04T05:27:50;102191.36;;;12.78;59.99
46682;BME280;34101;53.430;-2.224;2023-06-04T05:30:17;102193.75;;;12.84;59.80
46682;BME280;34101;53.430;-2.224;2023-06-04T05:32:44;102200.88;;;12.79;59.65
46682;BME280;34101;53.430;-2.224;2023-06-04T05:35:12;102201.64;;;12.83;59.43
46682;BME280;34101;53.430;-2.224;2023-06-04T05:37:39;102205.33;;;12.84;59.14
46682;BME280;34101;53.430;-2.224;2023-06-04T05:40:08;102203.94;;;12.90;59.01
46682;BME280;34101;53.430;-2.224;2023-06-04T05:42:37;102203.67;;;12.96;58.68
46682;BME280;34101;53.430;-2.224;2023-06-04T05:45:05;102209.36;;;12.99;58.64
46682;BME280;34101;53.430;-2.224;2023-06-04T05:47:32;102211.25;;;13.06;58.65
46682;BME280;34101;53.430;-2.224;2023-06-04T05:50:00;102211.95;;;13.06;58.71
46682;BME280;34101;53.430;-2.224;2023-06-04T05:52:27;102211.47;;;13.05;58.73
46682;BME280;34101;53.430;-2.224;2023-06-04T05:54:55;102213.58;;;13.09;58.57
46682;BME280;34101;53.430;-2.224;2023-06-04T05:57:22;102215.25;;;13.16;58.40
46682;BME280;34101;53.430;-2.224;2023-06-04T05:59:50;102215.90;;;13.25;58.18
46682;BME280;34101;53.430;-2.224;2023-06-04T06:02:17;102218.42;;;13.27;58.17
46682;BME280;34101;53.430;-2.224;2023-06-04T06:04:45;102219.30;;;13.28;57.80
46682;BME280;34101;53.430;-2.224;2023-06-04T06:07:12;102214.81;;;13.36;57.54
46682;BME280;34101;53.430;-2.224;2023-06-04T06:09:40;102213.21;;;13.45;57.49
46682;BME280;34101;53.430;-2.224;2023-06-04T06:12:07;102210.92;;;13.46;57.39
46682;BME280;34101;53.430;-2.224;2023-06-04T06:14:35;102211.61;;;13.57;57.04
46682;BME280;34101;53.430;-2.224;2023-06-04T06:17:03;102212.42;;;13.61;56.82
46682;BME280;34101;53.430;-2.224;2023-06-04T06:19:30;102209.84;;;13.72;56.66
46682;BME280;34101;53.430;-2.224;2023-06-04T06:21:57;102212.69;;;13.81;56.25
46682;BME280;34101;53.430;-2.224;2023-06-04T06:24:25;102210.70;;;13.86;55.83
46682;BME280;34101;53.430;-2.224;2023-06-04T06:26:52;102207.93;;;13.92;55.35
46682;BME280;34101;53.430;-2.224;2023-06-04T06:29:20;102212.07;;;14.00;55.12
46682;BME280;34101;53.430;-2.224;2023-06-04T06:31:47;102212.99;;;13.97;54.79
46682;BME280;34101;53.430;-2.224;2023-06-04T06:34:15;102212.04;;;14.01;54.77
46682;BME280;34101;53.430;-2.224;2023-06-04T06:36:43;102209.22;;;14.00;54.78
46682;BME280;34101;53.430;-2.224;2023-06-04T06:39:11;102204.88;;;14.02;54.77
46682;BME280;34101;53.430;-2.224;2023-06-04T06:41:38;102205.38;;;14.10;54.73
46682;BME280;34101;53.430;-2.224;2023-06-04T06:44:06;102198.71;;;14.21;54.38
46682;BME280;34101;53.430;-2.224;2023-06-04T06:46:33;102200.69;;;14.32;54.05
46682;BME280;34101;53.430;-2.224;2023-06-04T06:49:01;102202.63;;;14.36;53.48
46682;BME280;34101;53.430;-2.224;2023-06-04T06:51:28;102201.01;;;14.46;53.61
46682;BME280;34101;53.430;-2.224;2023-06-04T06:53:55;102199.43;;;14.59;53.11
46682;BME280;34101;53.430;-2.224;2023-06-04T06:56:23;102201.17;;;14.71;52.78
46682;BME280;34101;53.430;-2.224;2023-06-04T06:58:51;102198.76;;;14.80;52.31
46682;BME280;34101;53.430;-2.224;2023-06-04T07:01:18;102199.60;;;14.90;51.81
46682;BME280;34101;53.430;-2.224;2023-06-04T07:03:45;102198.55;;;15.00;51.30
46682;BME280;34101;53.430;-2.224;2023-06-04T07:06:15;102203.72;;;15.07;50.85
46682;BME280;34101;53.430;-2.224;2023-06-04T07:08:43;102200.16;;;15.20;51.16
46682;BME280;34101;53.430;-2.224;2023-06-04T07:11:10;102202.16;;;15.25;51.06
46682;BME280;34101;53.430;-2.224;2023-06-04T07:13:38;102202.51;;;15.33;51.09
46682;BME280;34101;53.430;-2.224;2023-06-04T07:16:06;102200.99;;;15.48;51.02
46682;BME280;34101;53.430;-2.224;2023-06-04T07:18:33;102198.34;;;15.63;50.91
46682;BME280;34101;53.430;-2.224;2023-06-04T07:21:00;102199.95;;;15.79;50.40
46682;BME280;34101;53.430;-2.224;2023-06-04T07:23:28;102196.67;;;15.82;49.72
46682;BME280;34101;53.430;-2.224;2023-06-04T07:25:56;102199.86;;;15.81;49.85
46682;BME280;34101;53.430;-2.224;2023-06-04T07:28:23;102197.73;;;16.07;49.69
46682;BME280;34101;53.430;-2.224;2023-06-04T07:30:51;102202.23;;;16.25;49.24
46682;BME280;34101;53.430;-2.224;2023-06-04T07:33:19;102204.54;;;16.44;48.78
46682;BME280;34101;53.430;-2.224;2023-06-04T07:35:46;102202.86;;;16.67;48.47
46682;BME280;34101;53.430;-2.224;2023-06-04T07:38:13;102202.18;;;16.94;47.92
46682;BME280;34101;53.430;-2.224;2023-06-04T07:40:41;102199.44;;;17.45;46.50
46682;BME280;34101;53.430;-2.224;2023-06-04T07:43:09;102197.36;;;18.18;44.60
46682;BME280;34101;53.430;-2.224;2023-06-04T07:45:36;102198.91;;;19.02;42.29
46682;BME280;34101;53.430;-2.224;2023-06-04T07:48:04;102197.03;;;19.73;40.41
46682;BME280;34101;53.430;-2.224;2023-06-04T07:50:31;102197.78;;;20.36;38.78
46682;BME280;34101;53.430;-2.224;2023-06-04T07:52:58;102203.84;;;21.01;37.51
46682;BME280;34101;53.430;-2.224;2023-06-04T07:55:26;102203.10;;;21.56;36.70
46682;BME280;34101;53.430;-2.224;2023-06-04T07:57:53;102201.56;;;21.78;35.73
46682;BME280;34101;53.430;-2.224;2023-06-04T08:00:21;102204.52;;;21.94;35.92
46682;BME280;34101;53.430;-2.224;2023-06-04T08:02:48;102200.47;;;22.57;34.46
46682;BME280;34101;53.430;-2.224;2023-06-04T08:05:16;102198.10;;;23.12;33.34
46682;BME280;34101;53.430;-2.224;2023-06-04T08:07:44;102195.45;;;23.47;32.47
46682;BME280;34101;53.430;-2.224;2023-06-04T08:10:11;102189.75;;;23.87;31.87
46682;BME280;34101;53.430;-2.224;2023-06-04T08:12:38;102187.42;;;24.18;30.42
46682;BME280;34101;53.430;-2.224;2023-06-04T08:15:06;102184.74;;;24.33;30.37
46682;BME280;34101;53.430;-2.224;2023-06-04T08:17:34;102185.59;;;24.58;29.69
46682;BME280;34101;53.430;-2.224;2023-06-04T08:20:02;102182.24;;;24.79;29.50
46682;BME280;34101;53.430;-2.224;2023-06-04T08:22:29;102186.77;;;25.11;29.23
46682;BME280;34101;53.430;-2.224;2023-06-04T08:24:56;102186.59;;;25.24;28.67
46682;BME280;34101;53.430;-2.224;2023-06-04T08:27:24;102183.36;;;25.45;28.32
46682;BME280;34101;53.430;-2.224;2023-06-04T08:29:52;102183.02;;;24.88;28.91
46682;BME280;34101;53.430;-2.224;2023-06-04T08:32:19;102183.68;;;25.74;27.94
46682;BME280;34101;53.430;-2.224;2023-06-04T08:34:52;102185.44;;;26.22;27.13
46682;BME280;34101;53.430;-2.224;2023-06-04T08:37:19;102184.32;;;26.35;27.18
46682;BME280;34101;53.430;-2.224;2023-06-04T08:39:46;102183.94;;;26.73;26.66
46682;BME280;34101;53.430;-2.224;2023-06-04T08:42:20;102186.07;;;27.00;26.06
46682;BME280;34101;53.430;-2.224;2023-06-04T08:44:51;102187.31;;;26.96;26.11
46682;BME280;34101;53.430;-2.224;2023-06-04T08:47:19;102184.28;;;27.00;25.97
46682;BME280;34101;53.430;-2.224;2023-06-04T08:49:49;102186.30;;;27.35;25.72
46682;BME280;34101;53.430;-2.224;2023-06-04T08:52:17;102188.54;;;27.72;25.46
46682;BME280;34101;53.430;-2.224;2023-06-04T08:54:45;102191.36;;;27.92;25.12
46682;BME280;34101;53.430;-2.224;2023-06-04T08:57:18;102188.15;;;27.90;24.72
46682;BME280;34101;53.430;-2.224;2023-06-04T08:59:45;102183.35;;;27.58;25.28
46682;BME280;34101;53.430;-2.224;2023-06-04T09:02:13;102181.00;;;27.61;25.19
46682;BME280;34101;53.430;-2.224;2023-06-04T09:04:42;102182.85;;;27.81;24.82
46682;BME280;34101;53.430;-2.224;2023-06-04T09:07:13;102180.86;;;27.70;25.10
46682;BME280;34101;53.430;-2.224;2023-06-04T09:09:45;102179.67;;;27.59;25.06
46682;BME280;34101;53.430;-2.224;2023-06-04T09:12:21;102175.51;;;27.14;25.64
46682;BME280;34101;53.430;-2.224;2023-06-04T09:14:54;102172.00;;;27.18;26.45
46682;BME280;34101;53.430;-2.224;2023-06-04T09:17:22;102172.34;;;27.50;26.04
46682;BME280;34101;53.430;-2.224;2023-06-04T09:19:50;102174.58;;;27.07;26.29
46682;BME280;34101;53.430;-2.224;2023-06-04T09:22:18;102172.39;;;27.17;26.13
46682;BME280;34101;53.430;-2.224;2023-06-04T09:24:47;102171.12;;;27.39;26.09
46682;BME280;34101;53.430;-2.224;2023-06-04T09:27:17;102169.87;;;27.38;26.63
46682;BME280;34101;53.430;-2.224;2023-06-04T09:29:54;102167.09;;;27.75;25.65
46682;BME280;34101;53.430;-2.224;2023-06-04T09:32:22;102168.25;;;27.95;25.83
46682;BME280;34101;53.430;-2.224;2023-06-04T09:34:49;102169.38;;;28.34;25.07
46682;BME280;34101;53.430;-2.224;2023-06-04T09:37:17;102164.20;;;28.64;24.96
46682;BME280;34101;53.430;-2.224;2023-06-04T09:39:52;102164.75;;;28.87;24.21
46682;BME280;34101;53.430;-2.224;2023-06-04T09:42:19;102164.55;;;28.31;24.75
46682;BME280;34101;53.430;-2.224;2023-06-04T09:44:47;102167.33;;;27.73;25.45
46682;BME280;34101;53.430;-2.224;2023-06-04T09:47:14;102166.63;;;27.76;25.43
46682;BME280;34101;53.430;-2.224;2023-06-04T09:49:42;102169.62;;;27.75;25.89
46682;BME280;34101;53.430;-2.224;2023-06-04T09:52:09;102166.51;;;27.47;26.53
46682;BME280;34101;53.430;-2.224;2023-06-04T09:54:38;102166.44;;;27.76;26.25
46682;BME280;34101;53.430;-2.224;2023-06-04T09:57:13;102167.52;;;28.23;25.00
46682;BME280;34101;53.430;-2.224;2023-06-04T09:59:40;102167.57;;;28.50;25.07
46682;BME280;34101;53.430;-2.224;2023-06-04T10:02:11;102168.64;;;28.89;24.62
46682;BME280;34101;53.430;-2.224;2023-06-04T10:04:41;102169.73;;;28.97;23.97
46682;BME280;34101;53.430;-2.224;2023-06-04T10:07:12;102168.07;;;29.01;24.14
46682;BME280;34101;53.430;-2.224;2023-06-04T10:09:44;102166.17;;;29.06;23.66
46682;BME280;34101;53.430;-2.224;2023-06-04T10:12:17;102162.23;;;28.39;24.19
46682;BME280;34101;53.430;-2.224;2023-06-04T10:14:52;102164.00;;;28.66;24.14
46682;BME280;34101;53.430;-2.224;2023-06-04T10:17:22;102165.07;;;29.11;23.20
46682;BME280;34101;53.430;-2.224;2023-06-04T10:19:50;102165.84;;;29.58;22.81
46682;BME280;34101;53.430;-2.224;2023-06-04T10:22:19;102164.04;;;29.33;22.96
46682;BME280;34101;53.430;-2.224;2023-06-04T10:24:46;102165.15;;;29.04;23.22
46682;BME280;34101;53.430;-2.224;2023-06-04T10:27:13;102166.55;;;28.30;23.54
46682;BME280;34101;53.430;-2.224;2023-06-04T10:29:41;102162.78;;;28.21;24.14
46682;BME280;34101;53.430;-2.224;2023-06-04T10:32:09;102160.21;;;28.28;24.34
46682;BME280;34101;53.430;-2.224;2023-06-04T10:34:37;102165.89;;;28.96;24.10
46682;BME280;34101;53.430;-2.224;2023-06-04T10:37:04;102162.15;;;29.26;23.13
46682;BME280;34101;53.430;-2.224;2023-06-04T10:39:37;102166.66;;;29.17;22.91
46682;BME280;34101;53.430;-2.224;2023-06-04T10:42:05;102166.09;;;29.18;23.26
46682;BME280;34101;53.430;-2.224;2023-06-04T10:44:45;102165.73;;;29.38;23.04
46682;BME280;34101;53.430;-2.224;2023-06-04T10:47:19;102171.55;;;29.28;23.01
46682;BME280;34101;53.430;-2.224;2023-06-04T10:49:46;102171.19;;;29.20;23.50
46682;BME280;34101;53.430;-2.224;2023-06-04T10:52:14;102170.67;;;29.02;22.79
46682;BME280;34101;53.430;-2.224;2023-06-04T10:54:42;102172.04;;;28.38;23.59
46682;BME280;34101;53.430;-2.224;2023-06-04T10:57:13;102169.07;;;28.07;24.18
46682;BME280;34101;53.430;-2.224;2023-06-04T10:59:41;102171.34;;;28.67;23.84
46682;BME280;34101;53.430;-2.224;2023-06-04T11:02:09;102171.77;;;28.84;23.24
46682;BME280;34101;53.430;-2.224;2023-06-04T11:04:36;102173.50;;;28.34;23.14
46682;BME280;34101;53.430;-2.224;2023-06-04T11:07:05;102172.51;;;27.94;23.82
46682;BME280;34101;53.430;-2.224;2023-06-04T11:09:33;102170.93;;;27.68;23.85
46682;BME280;34101;53.430;-2.224;2023-06-04T11:12:01;102172.70;;;27.25;24.31
46682;BME280;34101;53.430;-2.224;2023-06-04T11:14:29;102171.17;;;27.24;24.45
46682;BME280;34101;53.430;-2.224;2023-06-04T11:16:56;102171.37;;;27.06;24.55
46682;BME280;34101;53.430;-2.224;2023-06-04T11:19:24;102172.01;;;27.49;23.84
46682;BME280;34101;53.430;-2.224;2023-06-04T11:22:01;102173.85;;;27.48;24.01
46682;BME280;34101;53.430;-2.224;2023-06-04T11:24:29;102175.41;;;27.64;23.44
46682;BME280;34101;53.430;-2.224;2023-06-04T11:26:58;102176.26;;;27.38;23.31
46682;BME280;34101;53.430;-2.224;2023-06-04T11:29:26;102174.83;;;27.63;22.30
46682;BME280;34101;53.430;-2.224;2023-06-04T11:31:54;102171.45;;;27.64;21.84
46682;BME280;34101;53.430;-2.224;2023-06-04T11:34:24;102172.50;;;27.90;22.31
46682;BME280;34101;53.430;-2.224;2023-06-04T11:36:52;102173.57;;;28.16;21.60
46682;BME280;34101;53.430;-2.224;2023-06-04T11:39:21;102176.26;;;27.39;22.05
46682;BME280;34101;53.430;-2.224;2023-06-04T11:41:50;102175.54;;;27.22;21.67
46682;BME280;34101;53.430;-2.224;2023-06-04T11:44:19;102169.73;;;27.32;21.80
46682;BME280;34101;53.430;-2.224;2023-06-04T11:46:48;102173.96;;;27.78;21.92
46682;BME280;34101;53.430;-2.224;2023-06-04T11:49:16;102168.57;;;27.97;20.88
46682;BME280;34101;53.430;-2.224;2023-06-04T11:51:46;102172.48;;;28.26;21.20
46682;BME280;34101;53.430;-2.224;2023-06-04T11:54:20;102169.94;;;28.43;19.89
46682;BME280;34101;53.430;-2.224;2023-06-04T11:56:49;102173.24;;;28.87;20.53
46682;BME280;34101;53.430;-2.224;2023-06-04T11:59:18;102171.11;;;29.12;19.93
46682;BME280;34101;53.430;-2.224;2023-06-04T12:01:47;102168.49;;;29.09;18.88
46682;BME280;34101;53.430;-2.224;2023-06-04T12:04:15;102168.64;;;29.21;19.32
46682;BME280;34101;53.430;-2.224;2023-06-04T12:06:51;102162.70;;;29.38;19.02
46682;BME280;34101;53.430;-2.224;2023-06-04T12:09:21;102165.38;;;29.13;20.29
46682;BME280;34101;53.430;-2.224;2023-06-04T12:11:50;102165.40;;;28.76;20.20
46682;BME280;34101;53.430;-2.224;2023-06-04T12:14:18;102164.38;;;28.42;20.54
46682;BME280;34101;53.430;-2.224;2023-06-04T12:16:56;102151.96;;;27.42;22.12
46682;BME280;34101;53.430;-2.224;2023-06-04T12:19:23;102158.80;;;26.67;23.12
46682;BME280;34101;53.430;-2.224;2023-06-04T12:21:59;102164.81;;;26.60;24.34
46682;BME280;34101;53.430;-2.224;2023-06-04T12:24:34;102169.83;;;26.62;24.66
46682;BME280;34101;53.430;-2.224;2023-06-04T12:27:03;102157.86;;;26.65;24.67
46682;BME280;34101;53.430;-2.224;2023-06-04T12:29:31;102162.67;;;26.34;24.34
46682;BME280;34101;53.430;-2.224;2023-06-04T12:32:03;102162.36;;;26.27;24.73
46682;BME280;34101;53.430;-2.224;2023-06-04T12:34:31;102158.83;;;26.37;23.64
46682;BME280;34101;53.430;-2.224;2023-06-04T12:36:59;102155.30;;;26.41;25.75
46682;BME280;34101;53.430;-2.224;2023-06-04T12:39:27;102156.72;;;26.19;25.45
46682;BME280;34101;53.430;-2.224;2023-06-04T12:41:54;102157.02;;;26.04;26.53
46682;BME280;34101;53.430;-2.224;2023-06-04T12:44:21;102156.70;;;26.24;26.05
46682;BME280;34101;53.430;-2.224;2023-06-04T12:46:51;102153.33;;;26.34;25.45